Time;durP1;ratioP1;P1;durP2;ratioP2;P2;SDS_P1;SDS_P2;PMS_P1;PMS_P2;Temp;Humidity;BMP_temperature;BMP_pressure;BME280_temperature;BME280_humidity;BME280_pressure;Samples;Min_cycle;Max_cycle;Signal;HPM_P1;HPM_P2
2022/07/31 00:00:06;;;;;;;15.60;14.40;;;24.60;74.80;;;;;;5032580;28;20033;-67
2022/07/31 00:02:31;;;;;;;18.52;17.23;;;24.60;74.80;;;;;;5032687;28;20026;-67
2022/07/31 00:04:57;;;;;;;14.88;14.05;;;24.60;74.80;;;;;;5032567;28;20506;-69
2022/07/31 00:07:22;;;;;;;15.68;14.73;;;24.60;75.00;;;;;;5032642;28;20028;-67
2022/07/31 00:09:48;;;;;;;15.27;14.18;;;24.60;75.10;;;;;;5032394;28;20018;-67
2022/07/31 00:12:14;;;;;;;14.77;13.93;;;24.50;75.30;;;;;;5032541;28;20175;-67
2022/07/31 00:14:40;;;;;;;16.48;15.45;;;24.60;75.40;;;;;;5032534;28;20025;-67
2022/07/31 00:17:05;;;;;;;15.27;14.38;;;24.50;75.50;;;;;;5032557;28;20048;-67
2022/07/31 00:19:31;;;;;;;13.30;12.50;;;24.50;75.70;;;;;;5032581;28;20064;-66
2022/07/31 00:21:57;;;;;;;17.55;16.27;;;24.50;75.60;;;;;;5032569;28;20036;-67
2022/07/31 00:24:23;;;;;;;14.73;13.57;;;24.50;75.80;;;;;;5032539;28;20029;-67
2022/07/31 00:26:49;;;;;;;14.80;13.80;;;24.50;76.10;;;;;;5032396;28;20031;-67
2022/07/31 00:29:14;;;;;;;15.02;13.82;;;24.40;76.20;;;;;;5032355;28;20036;-67
2022/07/31 00:31:40;;;;;;;16.70;15.73;;;24.40;76.30;;;;;;5032226;28;20422;-70
2022/07/31 00:34:05;;;;;;;14.85;13.90;;;24.40;76.30;;;;;;5032308;28;20052;-70
2022/07/31 00:36:31;;;;;;;13.65;12.75;;;24.30;76.50;;;;;;5032272;28;20038;-71
2022/07/31 00:38:57;;;;;;;14.38;13.40;;;24.40;76.50;;;;;;5032276;28;20489;-71
2022/07/31 00:41:23;;;;;;;11.70;11.00;;;24.40;76.50;;;;;;5033991;28;20026;-71
2022/07/31 00:43:49;;;;;;;13.80;12.90;;;24.30;76.50;;;;;;5035622;28;20505;-71
2022/07/31 00:46:14;;;;;;;15.65;14.80;;;24.30;76.50;;;;;;5035832;28;20383;-67
2022/07/31 00:48:40;;;;;;;13.60;12.07;;;24.30;76.40;;;;;;5035856;28;20067;-67
2022/07/31 00:51:06;;;;;;;13.60;12.85;;;24.30;76.50;;;;;;5035910;28;20037;-67
2022/07/31 00:53:31;;;;;;;13.38;12.43;;;24.30;76.60;;;;;;5037014;28;20028;-69
2022/07/31 00:55:57;;;;;;;13.95;13.05;;;24.30;76.70;;;;;;5038638;28;20029;-67
2022/07/31 00:58:23;;;;;;;12.85;11.95;;;24.20;76.80;;;;;;5038572;28;20017;-67
2022/07/31 01:00:48;;;;;;;13.38;12.68;;;24.20;76.90;;;;;;5036811;28;20035;-71
2022/07/31 01:03:14;;;;;;;11.45;10.50;;;24.20;77.20;;;;;;5035589;28;20382;-71
2022/07/31 01:05:40;;;;;;;12.02;11.25;;;24.20;77.20;;;;;;5035282;28;20030;-71
2022/07/31 01:08:06;;;;;;;11.60;10.55;;;24.20;77.40;;;;;;5035287;28;20033;-71
2022/07/31 01:10:31;;;;;;;12.13;11.52;;;24.10;77.50;;;;;;5035128;28;20036;-71
2022/07/31 01:13:03;;;;;;;11.57;10.95;;;24.10;77.70;;;;;;5035235;28;20478;-71
2022/07/31 01:15:29;;;;;;;;;;;24.10;78.40;;;;;;5035884;28;20391;-72
2022/07/31 01:17:57;;;;;;;6.05;5.72;;;24.20;78.10;;;;;;5035440;28;19905;-71
2022/07/31 01:20:24;;;;;;;8.43;7.88;;;24.10;78.50;;;;;;5035185;28;20040;-71
2022/07/31 01:23:27;;;;;;;8.70;8.18;;;24.10;78.70;;;;;;5035277;28;20467;-71
2022/07/31 01:26:16;;;;;;;6.80;6.15;;;24.10;79.20;;;;;;5035135;28;20025;-72
2022/07/31 01:29:09;;;;;;;7.82;7.25;;;24.10;79.20;;;;;;5034964;28;20053;-71
2022/07/31 01:31:48;;;;;;;5.55;5.18;;;24.10;79.70;;;;;;5034888;28;20522;-71
2022/07/31 01:34:20;;;;;;;8.48;7.75;;;24.00;80.00;;;;;;5033767;28;20471;-71
2022/07/31 01:36:54;;;;;;;8.35;7.85;;;24.00;80.30;;;;;;5034639;28;20042;-71
2022/07/31 01:39:20;;;;;;;7.82;7.22;;;24.00;80.20;;;;;;5034935;28;20049;-71
2022/07/31 01:41:47;;;;;;;8.32;7.82;;;24.00;80.20;;;;;;5034333;28;20552;-71
2022/07/31 01:44:16;;;;;;;10.18;9.57;;;24.00;79.90;;;;;;5034859;28;20025;-71
2022/07/31 01:46:43;;;;;;;11.45;10.75;;;24.00;80.30;;;;;;5034930;28;20068;-72
2022/07/31 01:49:11;;;;;;;8.60;8.07;;;24.00;80.60;;;;;;5034726;28;20025;-71
2022/07/31 01:51:38;;;;;;;8.50;7.90;;;24.00;80.80;;;;;;5034449;28;20113;-71
2022/07/31 01:54:04;;;;;;;7.78;7.07;;;24.00;81.10;;;;;;5033951;28;20067;-70
2022/07/31 01:56:32;;;;;;;7.85;7.35;;;23.80;81.30;;;;;;5033919;28;20033;-71
2022/07/31 01:58:59;;;;;;;8.27;7.70;;;23.80;81.40;;;;;;5034717;28;20045;-71
2022/07/31 02:01:26;;;;;;;8.45;7.78;;;23.80;81.20;;;;;;5034526;28;20024;-71
2022/07/31 02:03:54;;;;;;;8.50;7.88;;;23.80;81.80;;;;;;5034555;28;20100;-71
2022/07/31 02:06:22;;;;;;;8.30;7.80;;;23.80;82.10;;;;;;5034267;28;20037;-72
2022/07/31 02:08:50;;;;;;;7.55;6.15;;;23.80;82.00;;;;;;5033093;28;20075;-70
2022/07/31 02:11:18;;;;;;;7.43;7.00;;;23.80;81.90;;;;;;5033851;28;20037;-71
2022/07/31 02:13:46;;;;;;;8.13;7.63;;;23.80;82.30;;;;;;5034489;28;20536;-71
2022/07/31 02:16:13;;;;;;;5.95;5.50;;;23.80;82.80;;;;;;5034050;28;20029;-71
2022/07/31 02:18:40;;;;;;;7.43;6.72;;;23.80;82.20;;;;;;5034504;28;20021;-72
2022/07/31 02:21:06;;;;;;;8.13;7.60;;;23.80;82.70;;;;;;5033985;28;20022;-71
2022/07/31 02:23:33;;;;;;;6.30;5.78;;;23.80;82.80;;;;;;5034436;28;20033;-71
2022/07/31 02:26:00;;;;;;;7.07;6.55;;;23.80;82.80;;;;;;5033627;28;20014;-70
2022/07/31 02:28:28;;;;;;;9.73;9.10;;;23.80;82.70;;;;;;5034024;28;20475;-70
2022/07/31 02:30:54;;;;;;;9.00;8.52;;;23.80;82.90;;;;;;5033712;28;20483;-70
2022/07/31 02:33:24;;;;;;;7.38;6.95;;;23.80;83.30;;;;;;5033936;28;20033;-70
2022/07/31 02:35:52;;;;;;;8.10;7.40;;;23.70;82.90;;;;;;5033686;28;20040;-67
2022/07/31 02:38:20;;;;;;;6.00;5.57;;;23.70;82.90;;;;;;5033744;28;20028;-69
2022/07/31 02:40:46;;;;;;;6.82;6.43;;;23.70;83.10;;;;;;5033458;28;20021;-68
2022/07/31 02:43:13;;;;;;;11.05;10.40;;;23.70;83.70;;;;;;5033791;28;20470;-68
2022/07/31 02:45:41;;;;;;;8.80;8.18;;;23.70;83.60;;;;;;5033931;28;20448;-69
2022/07/31 02:48:06;;;;;;;7.35;6.82;;;23.60;83.80;;;;;;5033676;28;20049;-67
2022/07/31 02:50:32;;;;;;;10.50;9.80;;;23.70;83.40;;;;;;5033374;28;20037;-68
2022/07/31 02:52:58;;;;;;;5.55;5.15;;;23.60;84.40;;;;;;5033491;28;20025;-68
2022/07/31 02:55:23;;;;;;;5.88;5.38;;;23.60;83.70;;;;;;5033416;28;20083;-67
2022/07/31 02:57:50;;;;;;;6.38;5.88;;;23.60;83.40;;;;;;5033380;28;20407;-69
2022/07/31 03:00:25;;;;;;;6.35;5.93;;;23.60;83.60;;;;;;5033600;28;20021;-67
2022/07/31 03:02:52;;;;;;;6.85;6.35;;;23.60;83.50;;;;;;5033459;28;20026;-67
2022/07/31 03:05:18;;;;;;;6.68;6.20;;;23.60;84.00;;;;;;5033174;28;20425;-68
2022/07/31 03:07:44;;;;;;;8.85;8.27;;;23.50;84.20;;;;;;5033179;28;20048;-68
2022/07/31 03:10:14;;;;;;;6.00;5.50;;;23.50;84.60;;;;;;5033146;28;20096;-68
2022/07/31 03:12:43;;;;;;;7.45;7.00;;;23.60;84.40;;;;;;5033300;28;20042;-70
2022/07/31 03:15:14;;;;;;;9.35;8.73;;;23.60;83.80;;;;;;5033361;28;20045;-69
2022/07/31 03:17:42;;;;;;;5.07;4.75;;;23.50;84.20;;;;;;5033196;28;20028;-70
2022/07/31 03:20:08;;;;;;;8.40;7.82;;;23.50;84.30;;;;;;5033349;28;20041;-70
2022/07/31 03:22:34;;;;;;;10.23;9.57;;;23.50;84.10;;;;;;5032600;28;20074;-71
2022/07/31 03:25:01;;;;;;;9.60;8.70;;;23.50;84.00;;;;;;5033362;28;20026;-69
2022/07/31 03:27:27;;;;;;;7.70;7.18;;;23.40;84.80;;;;;;5031630;28;20494;-70
2022/07/31 03:29:53;;;;;;;13.43;12.52;;;23.40;85.10;;;;;;5033269;28;20100;-70
2022/07/31 03:32:19;;;;;;;8.80;8.27;;;23.40;85.80;;;;;;5032578;28;20395;-70
2022/07/31 03:34:45;;;;;;;6.13;5.72;;;23.40;85.60;;;;;;5033095;28;20391;-69
2022/07/31 03:37:10;;;;;;;7.50;6.97;;;23.40;85.10;;;;;;5032592;28;20383;-69
2022/07/31 03:39:36;;;;;;;6.95;6.47;;;23.40;84.80;;;;;;5033070;28;20578;-68
2022/07/31 03:42:02;;;;;;;9.82;9.05;;;23.40;85.00;;;;;;5033126;28;20025;-67
2022/07/31 03:44:31;;;;;;;8.20;7.60;;;23.40;85.30;;;;;;5032788;28;20025;-70
2022/07/31 03:46:58;;;;;;;9.40;8.88;;;23.40;85.60;;;;;;5032819;28;20025;-71
2022/07/31 03:49:25;;;;;;;8.85;8.25;;;23.40;86.30;;;;;;5032845;28;20017;-68
2022/07/31 03:51:50;;;;;;;8.77;8.23;;;23.40;86.20;;;;;;5032619;28;20029;-70
2022/07/31 03:54:16;;;;;;;9.20;8.55;;;23.30;85.90;;;;;;5032925;28;20101;-68
2022/07/31 03:56:45;;;;;;;12.30;11.55;;;23.40;85.90;;;;;;5032707;28;20144;-70
2022/07/31 03:59:12;;;;;;;8.95;8.45;;;23.30;86.40;;;;;;5032695;28;20036;-71
2022/07/31 04:01:38;;;;;;;11.88;10.77;;;23.30;85.50;;;;;;5032761;28;20045;-71
2022/07/31 04:04:04;;;;;;;9.07;8.38;;;23.30;86.30;;;;;;5032862;28;20022;-69
2022/07/31 04:06:29;;;;;;;9.85;9.30;;;23.30;86.60;;;;;;5032538;28;20029;-70
2022/07/31 04:08:55;;;;;;;9.95;9.43;;;23.30;87.00;;;;;;5032807;28;20022;-71
2022/07/31 04:11:20;;;;;;;11.35;10.63;;;23.30;86.60;;;;;;5032741;28;20470;-68
2022/07/31 04:13:46;;;;;;;10.90;10.20;;;23.20;87.00;;;;;;5032589;28;20029;-69
2022/07/31 04:16:12;;;;;;;9.68;9.05;;;23.20;87.30;;;;;;5033939;28;20025;-67
2022/07/31 04:18:37;;;;;;;13.73;12.82;;;23.20;87.10;;;;;;5036562;28;20025;-67
2022/07/31 04:21:03;;;;;;;9.35;8.85;;;23.20;87.30;;;;;;5036162;28;20108;-68
2022/07/31 04:23:28;;;;;;;12.05;11.18;;;23.20;86.90;;;;;;5035054;28;20055;-67
2022/07/31 04:25:54;;;;;;;13.60;12.68;;;23.20;87.50;;;;;;5036475;28;20025;-69
2022/07/31 04:28:19;;;;;;;10.13;9.45;;;23.20;87.70;;;;;;5036492;28;20451;-69
2022/07/31 04:30:45;;;;;;;9.93;9.27;;;23.10;88.10;;;;;;5036170;28;20033;-70
2022/07/31 04:33:10;;;;;;;11.48;10.85;;;23.10;87.80;;;;;;5036175;28;20033;-69
2022/07/31 04:35:36;;;;;;;11.20;10.60;;;23.10;87.90;;;;;;5035612;28;20025;-68
2022/07/31 04:38:02;;;;;;;10.15;9.52;;;23.10;87.80;;;;;;5036170;28;20033;-70
2022/07/31 04:40:27;;;;;;;11.57;10.80;;;23.10;87.90;;;;;;5036113;28;20083;-70
2022/07/31 04:42:54;;;;;;;11.18;10.50;;;23.10;88.10;;;;;;5036142;28;20069;-71
2022/07/31 04:45:20;;;;;;;14.02;13.25;;;23.10;88.20;;;;;;5035729;28;20117;-68
2022/07/31 04:47:45;;;;;;;10.43;9.63;;;23.00;88.50;;;;;;5036117;28;20057;-71
2022/07/31 04:50:11;;;;;;;9.35;8.65;;;23.10;88.60;;;;;;5035612;28;20471;-72
2022/07/31 04:52:37;;;;;;;12.13;11.43;;;23.10;88.50;;;;;;5035854;28;20034;-71
2022/07/31 04:55:03;;;;;;;9.50;8.88;;;23.10;88.40;;;;;;5035694;28;20105;-67
2022/07/31 04:57:28;;;;;;;13.27;12.27;;;23.00;88.50;;;;;;5035713;28;20026;-68
2022/07/31 04:59:54;;;;;;;11.02;10.15;;;23.00;89.10;;;;;;5035758;28;20056;-67
2022/07/31 05:02:20;;;;;;;12.77;11.88;;;23.00;89.00;;;;;;5048336;28;20091;-67
2022/07/31 05:04:45;;;;;;;11.40;10.80;;;23.00;89.40;;;;;;5034886;28;20018;-67
2022/07/31 05:07:11;;;;;;;10.10;9.43;;;23.00;89.20;;;;;;5033366;28;20536;-68
2022/07/31 05:09:36;;;;;;;8.93;8.32;;;23.00;89.10;;;;;;5034847;28;20022;-68
2022/07/31 05:12:02;;;;;;;9.75;8.85;;;23.00;88.90;;;;;;5035531;28;20041;-70
2022/07/31 05:14:28;;;;;;;10.85;10.07;;;23.00;88.80;;;;;;5035238;28;20025;-68
2022/07/31 05:16:53;;;;;;;13.10;12.18;;;23.00;89.00;;;;;;5035106;28;20029;-67
2022/07/31 05:19:19;;;;;;;10.63;9.88;;;23.00;89.00;;;;;;5035196;28;20028;-67
2022/07/31 05:21:45;;;;;;;8.60;7.78;;;23.10;89.10;;;;;;5035402;28;20036;-68
2022/07/31 05:24:10;;;;;;;14.93;13.68;;;23.00;89.50;;;;;;5035378;28;20026;-69
2022/07/31 05:26:37;;;;;;;13.13;12.18;;;23.00;90.00;;;;;;5034798;28;20025;-67
2022/07/31 05:29:04;;;;;;;14.63;13.85;;;23.00;89.50;;;;;;5035108;28;20110;-70
2022/07/31 05:31:29;;;;;;;13.52;12.57;;;23.10;89.90;;;;;;5035008;28;20075;-68
2022/07/31 05:33:57;;;;;;;13.30;11.95;;;23.00;89.60;;;;;;5034920;28;20021;-69
2022/07/31 05:36:23;;;;;;;13.73;12.98;;;23.00;89.80;;;;;;5035074;28;20051;-67
2022/07/31 05:38:49;;;;;;;10.30;9.30;;;23.00;89.00;;;;;;5035046;28;20431;-70
2022/07/31 05:41:15;;;;;;;12.00;11.30;;;23.00;89.60;;;;;;5033607;28;20197;-69
2022/07/31 05:43:41;;;;;;;8.88;8.27;;;23.00;89.70;;;;;;5034994;28;20048;-68
2022/07/31 05:46:07;;;;;;;11.55;10.57;;;23.00;89.80;;;;;;5034642;28;20116;-67
2022/07/31 05:48:33;;;;;;;12.90;11.90;;;23.00;90.10;;;;;;5034695;28;20022;-67
2022/07/31 05:50:59;;;;;;;13.43;12.63;;;23.00;90.40;;;;;;5034583;28;20036;-68
2022/07/31 05:53:26;;;;;;;11.68;10.88;;;23.00;90.70;;;;;;5034760;28;20033;-67
2022/07/31 05:55:51;;;;;;;8.38;7.88;;;23.00;89.90;;;;;;5034498;28;20028;-67
2022/07/31 05:58:18;;;;;;;12.88;11.95;;;23.00;89.10;;;;;;5034472;28;20029;-69
2022/07/31 06:00:46;;;;;;;11.10;10.45;;;23.00;90.00;;;;;;5034357;28;20037;-68
2022/07/31 06:03:12;;;;;;;10.50;9.85;;;23.00;88.80;;;;;;5034394;28;20467;-68
2022/07/31 06:05:39;;;;;;;9.05;8.40;;;23.10;89.20;;;;;;5033121;28;20104;-69
2022/07/31 06:08:05;;;;;;;11.20;10.38;;;23.10;88.50;;;;;;5034408;28;20486;-68
2022/07/31 06:10:30;;;;;;;11.32;10.43;;;23.10;88.60;;;;;;5034292;28;20172;-69
2022/07/31 06:12:56;;;;;;;13.20;12.05;;;23.10;88.60;;;;;;5034389;28;20519;-68
2022/07/31 06:15:22;;;;;;;15.05;13.95;;;23.00;89.80;;;;;;5034217;28;20484;-67
2022/07/31 06:17:47;;;;;;;15.50;14.27;;;23.00;90.20;;;;;;5034248;28;20048;-68
2022/07/31 06:20:14;;;;;;;10.68;9.80;;;23.00;89.80;;;;;;5034338;28;20482;-67
2022/07/31 06:22:42;;;;;;;12.40;11.70;;;23.10;90.20;;;;;;5034103;28;20025;-67
2022/07/31 06:25:09;;;;;;;12.23;11.40;;;23.10;89.70;;;;;;5034051;28;20091;-67
2022/07/31 06:27:35;;;;;;;13.10;12.35;;;23.10;90.00;;;;;;5034010;28;20021;-70
2022/07/31 06:30:04;;;;;;;10.85;10.05;;;23.10;89.40;;;;;;5033857;28;20037;-70
2022/07/31 06:32:30;;;;;;;11.60;10.75;;;23.10;90.10;;;;;;5033636;28;20045;-69
2022/07/31 06:34:56;;;;;;;13.10;12.15;;;23.10;89.60;;;;;;5033886;28;20104;-70
2022/07/31 06:37:21;;;;;;;12.30;11.23;;;23.10;90.00;;;;;;5033627;28;20129;-70
2022/07/31 06:39:47;;;;;;;13.45;12.45;;;23.10;90.20;;;;;;5033241;28;20033;-70
2022/07/31 06:42:21;;;;;;;16.33;15.18;;;23.20;89.70;;;;;;5033723;28;20021;-71
2022/07/31 06:44:46;;;;;;;11.43;10.60;;;23.20;90.10;;;;;;5033799;28;20033;-70
2022/07/31 06:47:12;;;;;;;13.45;12.50;;;23.20;88.40;;;;;;5033275;28;20032;-71
2022/07/31 06:49:39;;;;;;;13.90;12.73;;;23.20;88.50;;;;;;5033772;28;20018;-71
2022/07/31 06:52:05;;;;;;;12.63;11.60;;;23.30;88.00;;;;;;5033424;28;20360;-69
2022/07/31 06:54:30;;;;;;;10.23;9.73;;;23.30;87.80;;;;;;5033579;28;20026;-70
2022/07/31 06:56:56;;;;;;;13.32;12.32;;;23.30;87.00;;;;;;5033359;28;20490;-70
2022/07/31 06:59:22;;;;;;;12.70;11.68;;;23.30;87.40;;;;;;5033495;28;20388;-71
2022/07/31 07:01:47;;;;;;;10.38;9.73;;;23.40;88.50;;;;;;5033195;28;20032;-71
2022/07/31 07:04:13;;;;;;;12.43;11.48;;;23.40;87.50;;;;;;5033419;28;20505;-71
2022/07/31 07:06:38;;;;;;;10.82;9.95;;;23.40;88.80;;;;;;5033009;28;20479;-70
2022/07/31 07:09:04;;;;;;;9.50;8.90;;;23.40;88.10;;;;;;5033256;28;20018;-70
2022/07/31 07:11:30;;;;;;;8.88;8.32;;;23.40;86.60;;;;;;5033346;28;20482;-70
2022/07/31 07:13:55;;;;;;;12.07;11.15;;;23.40;86.90;;;;;;5033252;28;20032;-70
2022/07/31 07:16:21;;;;;;;11.80;11.10;;;23.40;86.20;;;;;;5033099;28;20032;-70
2022/07/31 07:18:47;;;;;;;9.88;9.38;;;23.40;86.20;;;;;;5032909;28;20032;-70
2022/07/31 07:21:13;;;;;;;12.00;11.30;;;23.40;85.80;;;;;;5033276;28;20022;-70
2022/07/31 07:23:39;;;;;;;8.90;8.27;;;23.40;85.70;;;;;;5033266;28;20052;-69
2022/07/31 07:26:05;;;;;;;12.50;11.75;;;23.50;85.80;;;;;;5033203;28;20017;-70
2022/07/31 07:28:30;;;;;;;11.10;10.45;;;23.50;85.90;;;;;;5033067;28;20461;-70
2022/07/31 07:30:56;;;;;;;10.10;9.35;;;23.50;85.80;;;;;;5036392;28;20467;-71
2022/07/31 07:33:21;;;;;;;10.27;9.68;;;23.50;86.00;;;;;;5041657;28;20526;-72
2022/07/31 07:35:47;;;;;;;9.80;9.30;;;23.50;85.90;;;;;;5052973;28;20532;-72
2022/07/31 07:38:12;;;;;;;10.48;9.82;;;23.60;86.10;;;;;;5067804;28;20491;-72
2022/07/31 07:40:39;;;;;;;13.07;12.18;;;23.60;86.20;;;;;;5056364;28;20071;-71
2022/07/31 07:43:05;;;;;;;12.35;11.23;;;23.60;86.40;;;;;;5050956;28;20079;-70
2022/07/31 07:45:31;;;;;;;12.38;11.60;;;23.60;86.40;;;;;;5057419;28;20029;-71
2022/07/31 07:47:56;;;;;;;11.13;10.38;;;23.70;86.30;;;;;;5061360;28;20025;-72
2022/07/31 07:50:22;;;;;;;13.60;12.63;;;23.60;87.60;;;;;;5066616;28;20039;-71
2022/07/31 07:52:48;;;;;;;15.10;13.80;;;23.70;89.10;;;;;;5057716;28;20040;-68
2022/07/31 07:55:13;;;;;;;12.45;11.32;;;23.70;89.20;;;;;;5053533;28;20021;-71
2022/07/31 07:57:42;;;;;;;13.90;12.73;;;23.70;89.10;;;;;;5055039;28;20363;-72
2022/07/31 08:00:10;;;;;;;11.45;10.25;;;23.80;89.10;;;;;;5055191;28;20039;-72
2022/07/31 08:02:35;;;;;;;12.73;11.65;;;23.80;88.90;;;;;;5054835;28;20056;-71
2022/07/31 08:05:01;;;;;;;14.13;13.02;;;23.80;88.90;;;;;;5053817;28;20072;-71
2022/07/31 08:07:32;;;;;;;11.80;10.90;;;23.80;89.00;;;;;;5055366;28;20025;-70
2022/07/31 08:09:58;;;;;;;11.93;10.82;;;23.90;89.20;;;;;;5055106;28;20025;-70
2022/07/31 08:12:25;;;;;;;11.82;10.90;;;23.90;88.90;;;;;;5054980;28;20037;-71
2022/07/31 08:14:50;;;;;;;13.00;12.00;;;23.90;88.60;;;;;;5055561;28;20021;-72
2022/07/31 08:17:16;;;;;;;13.70;12.77;;;23.90;88.70;;;;;;5055400;28;20032;-67
2022/07/31 08:19:42;;;;;;;11.48;10.60;;;24.00;88.60;;;;;;5054999;28;20029;-67
2022/07/31 08:22:08;;;;;;;12.85;11.95;;;24.00;88.50;;;;;;5054602;28;20382;-70
2022/07/31 08:24:34;;;;;;;12.60;11.80;;;24.00;88.50;;;;;;5054694;28;20024;-68
2022/07/31 08:29:44;;;;;;;12.45;11.52;;;24.10;88.30;;;;;;5044679;28;20063;-71
2022/07/31 08:32:12;;;;;;;12.45;11.65;;;24.10;88.50;;;;;;5041548;28;20080;-64
2022/07/31 08:34:38;;;;;;;10.15;9.45;;;24.10;88.40;;;;;;5056286;28;20103;-70
2022/07/31 08:37:05;;;;;;;13.90;12.13;;;24.10;88.20;;;;;;5036180;28;20121;-71
2022/07/31 08:39:32;;;;;;;14.82;13.88;;;24.10;88.20;;;;;;5036778;28;20017;-70
2022/07/31 08:41:58;;;;;;;12.75;11.90;;;24.10;88.80;;;;;;5039847;28;20095;-69
2022/07/31 08:44:24;;;;;;;12.60;11.70;;;24.20;88.40;;;;;;5033751;28;20125;-70
2022/07/31 08:46:52;;;;;;;12.68;11.52;;;24.10;88.10;;;;;;5034625;28;20558;-70
2022/07/31 08:49:23;;;;;;;10.85;10.15;;;24.20;88.20;;;;;;5053040;28;20021;-70
2022/07/31 08:51:48;;;;;;;12.93;11.88;;;24.20;88.00;;;;;;5050305;28;20033;-67
2022/07/31 08:54:15;;;;;;;14.55;13.40;;;24.20;88.00;;;;;;5046346;28;20258;-70
2022/07/31 08:56:41;;;;;;;13.15;12.05;;;24.20;87.80;;;;;;5046622;28;20148;-68
2022/07/31 08:59:07;;;;;;;12.60;11.55;;;24.20;88.00;;;;;;5039029;28;20120;-67
2022/07/31 09:01:34;;;;;;;14.00;13.10;;;24.30;88.10;;;;;;5043297;28;20092;-68
2022/07/31 09:04:00;;;;;;;13.55;12.70;;;24.30;88.00;;;;;;5051233;28;20112;-67
2022/07/31 09:06:26;;;;;;;13.13;12.27;;;24.30;88.00;;;;;;5043857;28;20104;-70
2022/07/31 09:08:54;;;;;;;13.48;12.57;;;24.30;87.70;;;;;;5035099;28;20132;-70
2022/07/31 09:11:19;;;;;;;13.43;12.43;;;24.30;87.80;;;;;;5042782;28;20068;-66
2022/07/31 09:13:54;;;;;;;12.40;11.48;;;24.30;87.60;;;;;;5037452;28;20029;-70
2022/07/31 09:16:21;;;;;;;10.38;9.73;;;24.40;87.70;;;;;;5040199;28;20047;-67
2022/07/31 09:19:00;;;;;;;13.85;12.95;;;24.30;87.70;;;;;;5040354;28;20084;-70
2022/07/31 09:21:26;;;;;;;10.10;9.32;;;24.30;87.70;;;;;;5049153;28;20051;-67
2022/07/31 09:23:55;;;;;;;11.85;11.02;;;24.30;87.60;;;;;;5038450;28;20128;-69
2022/07/31 09:26:32;;;;;;;7.97;7.45;;;24.40;87.60;;;;;;5036881;28;20074;-67
2022/07/31 09:28:59;;;;;;;11.13;10.43;;;24.30;87.50;;;;;;5053122;28;20099;-70
2022/07/31 09:31:31;;;;;;;12.13;11.38;;;24.40;87.40;;;;;;5040347;28;20061;-67
2022/07/31 09:33:57;;;;;;;8.65;8.15;;;24.40;87.50;;;;;;5039472;28;20025;-68
2022/07/31 09:36:23;;;;;;;11.38;10.48;;;24.40;87.40;;;;;;5038100;28;20498;-69
2022/07/31 09:38:49;;;;;;;12.63;11.52;;;24.40;87.50;;;;;;5046566;28;20096;-67
2022/07/31 09:41:17;;;;;;;12.00;11.30;;;24.40;87.30;;;;;;5060327;28;20519;-67
2022/07/31 09:43:52;;;;;;;10.48;9.80;;;24.40;87.40;;;;;;5068678;28;20098;-67
2022/07/31 09:46:18;;;;;;;10.05;9.25;;;24.40;87.20;;;;;;5056877;28;20028;-67
2022/07/31 09:48:50;;;;;;;14.13;13.25;;;24.40;87.30;;;;;;5066582;28;20013;-67
2022/07/31 09:51:15;;;;;;;12.40;11.50;;;24.40;87.10;;;;;;5053182;28;20068;-71
2022/07/31 09:53:46;;;;;;;13.50;12.68;;;24.50;87.00;;;;;;5042094;28;20071;-68
2022/07/31 09:56:13;;;;;;;11.05;10.35;;;24.50;87.00;;;;;;5062266;28;20017;-67
2022/07/31 09:58:40;;;;;;;10.80;10.13;;;24.50;87.10;;;;;;5057015;28;20066;-71
2022/07/31 10:01:08;;;;;;;11.63;10.90;;;24.50;87.20;;;;;;5062603;28;20024;-71
2022/07/31 10:03:35;;;;;;;11.10;10.50;;;24.50;87.00;;;;;;5039211;28;20025;-70
2022/07/31 10:06:01;;;;;;;10.55;9.80;;;24.50;87.10;;;;;;5042979;28;20025;-70
2022/07/31 10:08:28;;;;;;;10.93;10.18;;;24.50;87.30;;;;;;5045384;28;20041;-68
2022/07/31 10:10:54;;;;;;;10.43;9.68;;;24.50;87.00;;;;;;5040149;28;20112;-71
2022/07/31 10:13:21;;;;;;;9.90;9.23;;;24.50;87.30;;;;;;5044387;28;20423;-71
2022/07/31 10:15:49;;;;;;;12.60;11.60;;;24.50;87.20;;;;;;5055372;28;20032;-70
2022/07/31 10:18:16;;;;;;;10.05;9.40;;;24.50;87.20;;;;;;5063155;28;20015;-71
2022/07/31 10:20:51;;;;;;;10.52;9.75;;;24.50;87.20;;;;;;5064462;28;20470;-69
2022/07/31 10:23:21;;;;;;;8.52;7.72;;;24.50;87.10;;;;;;5056833;28;20199;-70
2022/07/31 10:25:57;;;;;;;10.52;9.85;;;24.50;87.00;;;;;;5057092;28;20108;-68
2022/07/31 10:28:23;;;;;;;11.27;10.55;;;24.50;87.10;;;;;;5046589;28;20017;-67
2022/07/31 10:30:49;;;;;;;12.90;12.10;;;24.50;87.10;;;;;;5051901;28;20033;-70
2022/07/31 10:33:16;;;;;;;9.27;8.43;;;24.50;87.10;;;;;;5041391;28;20025;-71
2022/07/31 10:36:01;;;;;;;10.20;9.50;;;24.50;87.10;;;;;;5054731;28;20059;-67
2022/07/31 10:38:42;;;;;;;11.52;10.68;;;24.60;87.30;;;;;;5073572;28;20024;-66
2022/07/31 10:41:24;;;;;;;10.77;9.98;;;24.60;87.40;;;;;;5058985;28;20462;-67
2022/07/31 10:44:01;;;;;;;9.82;9.15;;;24.60;87.30;;;;;;5040502;28;20033;-67
2022/07/31 10:46:31;;;;;;;9.35;8.70;;;24.60;87.70;;;;;;5039611;28;20028;-66
2022/07/31 10:48:57;;;;;;;11.95;11.07;;;24.60;87.80;;;;;;5039508;28;20052;-70
2022/07/31 10:51:23;;;;;;;13.35;12.38;;;24.60;88.60;;;;;;5037578;28;20029;-70
2022/07/31 10:53:57;;;;;;;12.80;11.80;;;24.60;88.40;;;;;;5036621;28;20036;-67
2022/07/31 10:56:23;;;;;;;13.82;12.65;;;24.60;88.40;;;;;;5046641;28;20031;-67
2022/07/31 10:58:51;;;;;;;10.88;10.07;;;24.60;88.50;;;;;;5035093;28;20029;-68
2022/07/31 11:01:17;;;;;;;12.07;11.35;;;24.60;88.60;;;;;;5042545;28;20386;-71
2022/07/31 11:03:45;;;;;;;14.45;13.30;;;24.60;88.90;;;;;;5040643;28;20056;-68
2022/07/31 11:06:16;;;;;;;11.60;10.73;;;24.60;89.10;;;;;;5041791;28;20037;-66
2022/07/31 11:08:47;;;;;;;13.63;12.63;;;24.70;89.60;;;;;;5045884;28;20029;-69
2022/07/31 11:11:14;;;;;;;14.55;13.60;;;24.70;89.90;;;;;;5040468;28;20033;-70
2022/07/31 11:13:51;;;;;;;17.23;15.63;;;24.70;90.00;;;;;;5036868;28;20027;-67
2022/07/31 11:16:18;;;;;;;22.30;17.58;;;24.70;90.70;;;;;;5040882;28;20087;-68
2022/07/31 11:18:55;;;;;;;18.90;16.70;;;24.70;91.10;;;;;;5039369;28;20333;-70
2022/07/31 11:21:38;;;;;;;17.02;14.80;;;24.70;91.10;;;;;;5036905;28;20083;-70
2022/07/31 11:24:17;;;;;;;18.17;16.25;;;24.80;90.80;;;;;;5037137;28;20425;-68
2022/07/31 11:26:52;;;;;;;15.10;13.60;;;24.80;91.00;;;;;;5047014;28;20033;-71
2022/07/31 11:29:31;;;;;;;20.20;15.80;;;24.70;91.40;;;;;;5039310;28;20028;-70
2022/07/31 11:32:06;;;;;;;16.17;14.60;;;24.80;91.40;;;;;;5051543;28;20455;-71
2022/07/31 11:34:43;;;;;;;18.10;14.05;;;24.80;91.10;;;;;;5043381;28;20033;-70
2022/07/31 11:37:18;;;;;;;15.68;14.48;;;24.80;91.00;;;;;;5042212;28;20029;-71
2022/07/31 11:39:43;;;;;;;15.95;14.60;;;24.80;91.20;;;;;;5043973;28;20478;-71
2022/07/31 11:42:09;;;;;;;17.73;16.17;;;24.90;91.50;;;;;;5041538;28;20043;-68
2022/07/31 11:44:35;;;;;;;14.52;13.38;;;24.80;91.30;;;;;;5044907;28;20364;-70
2022/07/31 11:47:00;;;;;;;16.33;15.10;;;24.90;91.00;;;;;;5034494;28;20444;-71
2022/07/31 11:49:27;;;;;;;16.92;15.30;;;24.90;91.00;;;;;;5033620;28;20026;-68
2022/07/31 11:52:00;;;;;;;14.15;13.13;;;24.90;90.90;;;;;;5042392;28;20103;-68
2022/07/31 11:54:25;;;;;;;14.10;13.25;;;24.90;90.90;;;;;;5045407;28;20378;-69
2022/07/31 11:56:52;;;;;;;14.45;13.40;;;24.90;90.60;;;;;;5037472;28;20029;-68
2022/07/31 11:59:31;;;;;;;15.20;14.00;;;25.00;90.60;;;;;;5037347;28;20072;-68
2022/07/31 12:02:06;;;;;;;12.75;11.65;;;24.90;90.60;;;;;;5049259;28;20047;-69
2022/07/31 12:04:35;;;;;;;14.40;13.43;;;25.00;90.70;;;;;;5047871;28;20103;-67
2022/07/31 12:07:01;;;;;;;14.68;13.40;;;25.00;90.40;;;;;;5039755;28;20032;-67
2022/07/31 12:09:28;;;;;;;13.27;12.38;;;25.00;90.40;;;;;;5060043;28;20043;-67
2022/07/31 12:11:54;;;;;;;14.63;13.65;;;25.00;90.40;;;;;;5062940;28;20040;-68
2022/07/31 12:14:36;;;;;;;15.07;13.80;;;25.00;90.40;;;;;;5067590;28;20029;-67
2022/07/31 12:17:04;;;;;;;15.07;13.95;;;24.90;90.40;;;;;;5071475;28;20025;-68
2022/07/31 12:19:34;;;;;;;13.65;12.85;;;25.00;90.40;;;;;;5051738;28;20432;-71
2022/07/31 12:22:11;;;;;;;14.43;13.50;;;25.00;90.30;;;;;;5063836;28;20036;-71
2022/07/31 12:24:38;;;;;;;11.13;10.48;;;25.10;90.20;;;;;;5057022;28;20068;-70
2022/07/31 12:27:05;;;;;;;16.08;14.68;;;25.10;90.20;;;;;;5055387;28;20029;-71
2022/07/31 12:29:33;;;;;;;12.52;11.77;;;25.10;90.10;;;;;;5044848;28;20479;-71
2022/07/31 12:31:59;;;;;;;15.02;14.13;;;25.10;90.20;;;;;;5050785;28;20060;-67
2022/07/31 12:34:28;;;;;;;12.52;11.63;;;25.00;90.20;;;;;;5050669;28;20364;-67
2022/07/31 12:37:10;;;;;;;15.68;14.52;;;25.10;90.20;;;;;;5050417;28;20496;-67